Time;durP1;ratioP1;P1;durP2;ratioP2;P2;SDS_P1;SDS_P2;PMS_P1;PMS_P2;Temp;Humidity;BMP_temperature;BMP_pressure;BME280_temperature;BME280_humidity;BME280_pressure;Samples;Min_cycle;Max_cycle;Signal;HPM_P1;HPM_P2
2022/05/19 00:01:39;;;;;;;2.97;2.63;;;;;;;;;;4957557;28;20710;-42
2022/05/19 00:04:06;;;;;;;3.40;2.50;;;;;;;;;;4956465;28;20613;-42
2022/05/19 00:06:32;;;;;;;6.07;3.40;;;;;;;;;;4958609;28;20178;-42
2022/05/19 00:08:58;;;;;;;4.80;2.63;;;;;;;;;;4961166;28;20273;-41
2022/05/19 00:11:28;;;;;;;6.97;2.97;;;;;;;;;;4959177;28;21099;-41
2022/05/19 00:13:54;;;;;;;5.17;2.87;;;;;;;;;;4954785;28;20772;-42
2022/05/19 00:16:20;;;;;;;7.23;2.73;;;;;;;;;;4957758;28;21010;-42
2022/05/19 00:18:46;;;;;;;4.20;3.03;;;;;;;;;;4959486;28;20174;-42
2022/05/19 00:21:12;;;;;;;5.23;2.93;;;;;;;;;;4958106;28;20249;-41
2022/05/19 00:23:38;;;;;;;13.33;3.23;;;;;;;;;;4955185;28;20186;-42
2022/05/19 00:26:04;;;;;;;5.10;2.83;;;;;;;;;;4961052;28;20627;-40
2022/05/19 00:28:30;;;;;;;5.60;2.90;;;;;;;;;;4956909;28;20508;-41
2022/05/19 00:30:56;;;;;;;6.03;2.60;;;;;;;;;;4952953;28;20756;-41
2022/05/19 00:33:23;;;;;;;4.33;2.80;;;;;;;;;;4959556;28;20220;-41
2022/05/19 00:35:49;;;;;;;4.50;2.77;;;;;;;;;;4960786;28;20210;-41
2022/05/19 00:38:15;;;;;;;3.50;2.80;;;;;;;;;;4958653;28;20612;-42
2022/05/19 00:40:49;;;;;;;4.63;2.80;;;;;;;;;;4959635;28;20185;-42
2022/05/19 00:43:15;;;;;;;4.73;3.03;;;;;;;;;;4956812;28;20531;-42
2022/05/19 00:46:03;;;;;;;3.30;2.40;;;;;;;;;;4958018;28;20182;-41
2022/05/19 00:48:33;;;;;;;3.40;2.63;;;;;;;;;;4956296;28;20190;-41
2022/05/19 00:51:02;;;;;;;3.90;2.60;;;;;;;;;;4956969;28;20189;-42
2022/05/19 00:53:31;;;;;;;3.73;2.33;;;;;;;;;;4953425;28;21621;-42
2022/05/19 00:55:58;;;;;;;7.53;3.10;;;;;;;;;;4954553;28;20213;-42
2022/05/19 00:58:27;;;;;;;4.43;2.80;;;;;;;;;;4954832;28;20617;-40
2022/05/19 01:00:54;;;;;;;4.47;2.47;;;;;;;;;;4957897;28;20170;-44
2022/05/19 01:03:21;;;;;;;4.93;2.53;;;;;;;;;;4958757;28;20190;-42
2022/05/19 01:05:49;;;;;;;6.40;2.50;;;;;;;;;;4955528;28;20546;-41
2022/05/19 01:08:28;;;;;;;3.70;2.47;;;;;;;;;;4958258;28;20522;-42
2022/05/19 01:10:54;;;;;;;4.23;2.37;;;;;;;;;;4958226;28;20457;-41
2022/05/19 01:13:21;;;;;;;4.60;2.27;;;;;;;;;;4960266;28;20174;-42
2022/05/19 01:15:53;;;;;;;3.30;2.17;;;;;;;;;;4957208;28;20643;-42
2022/05/19 01:18:19;;;;;;;3.40;2.47;;;;;;;;;;4958751;28;20329;-40
2022/05/19 01:20:46;;;;;;;6.57;2.80;;;;;;;;;;4961475;28;22120;-42
2022/05/19 01:23:34;;;;;;;3.23;2.10;;;;;;;;;;4964948;28;20579;-42
2022/05/19 01:26:06;;;;;;;8.83;2.80;;;;;;;;;;4960632;28;20189;-41
2022/05/19 01:28:32;;;;;;;4.20;2.20;;;;;;;;;;4959601;28;20174;-44
2022/05/19 01:30:58;;;;;;;4.50;2.40;;;;;;;;;;4961212;28;20462;-43
2022/05/19 01:33:25;;;;;;;3.37;2.30;;;;;;;;;;4962108;28;20850;-44
2022/05/19 01:35:51;;;;;;;4.67;2.43;;;;;;;;;;4959177;28;20246;-44
2022/05/19 01:38:20;;;;;;;3.47;2.10;;;;;;;;;;4958786;28;20559;-42
2022/05/19 01:40:46;;;;;;;4.13;2.17;;;;;;;;;;4959896;28;20360;-43
2022/05/19 01:43:22;;;;;;;4.50;2.00;;;;;;;;;;4961839;28;20224;-42
2022/05/19 01:45:57;;;;;;;4.63;2.20;;;;;;;;;;4962242;28;20293;-42
2022/05/19 01:48:23;;;;;;;4.13;2.20;;;;;;;;;;4959806;28;20216;-41
2022/05/19 01:50:59;;;;;;;5.90;2.17;;;;;;;;;;4955122;28;20233;-41
2022/05/19 01:53:33;;;;;;;3.60;2.03;;;;;;;;;;4955009;28;20417;-42
2022/05/19 01:56:02;;;;;;;4.10;2.40;;;;;;;;;;4954744;28;20883;-42
2022/05/19 01:58:41;;;;;;;6.03;2.10;;;;;;;;;;4958401;28;20578;-41
2022/05/19 02:01:08;;;;;;;4.00;2.17;;;;;;;;;;4961607;28;20513;-42
2022/05/19 02:03:53;;;;;;;5.33;2.20;;;;;;;;;;4957712;28;20961;-40
2022/05/19 02:06:25;;;;;;;5.80;2.17;;;;;;;;;;4964142;28;20182;-41
2022/05/19 02:08:55;;;;;;;4.80;2.10;;;;;;;;;;4957739;28;20629;-42
2022/05/19 02:11:30;;;;;;;3.67;2.20;;;;;;;;;;4962326;28;20182;-43
2022/05/19 02:13:58;;;;;;;5.10;2.20;;;;;;;;;;4964222;28;20182;-42
2022/05/19 02:16:24;;;;;;;5.23;2.20;;;;;;;;;;4958419;28;20210;-42
2022/05/19 02:18:51;;;;;;;4.17;2.47;;;;;;;;;;4956422;28;20190;-42
2022/05/19 02:21:18;;;;;;;5.00;2.00;;;;;;;;;;4958285;28;20182;-42
2022/05/19 02:23:45;;;;;;;5.00;2.00;;;;;;;;;;4955355;28;20496;-42
2022/05/19 02:26:11;;;;;;;3.13;2.20;;;;;;;;;;4953051;28;20190;-43
2022/05/19 02:28:40;;;;;;;3.70;2.30;;;;;;;;;;4958324;28;20184;-41
2022/05/19 02:31:06;;;;;;;4.07;2.57;;;;;;;;;;4960171;28;20202;-42
2022/05/19 02:33:32;;;;;;;3.43;2.23;;;;;;;;;;4957082;28;20281;-41
2022/05/19 02:35:59;;;;;;;4.17;2.67;;;;;;;;;;4963933;28;20220;-42
2022/05/19 02:38:25;;;;;;;4.33;2.40;;;;;;;;;;4957090;28;20185;-42
2022/05/19 02:40:51;;;;;;;3.80;2.27;;;;;;;;;;4955285;28;20182;-41
2022/05/19 02:43:18;;;;;;;4.57;2.20;;;;;;;;;;4959795;28;20189;-42
2022/05/19 02:45:44;;;;;;;4.40;2.23;;;;;;;;;;4958302;28;20886;-42
2022/05/19 02:48:10;;;;;;;5.87;2.87;;;;;;;;;;4961890;28;20193;-44
2022/05/19 02:50:37;;;;;;;6.23;2.73;;;;;;;;;;4956666;28;20482;-40
2022/05/19 02:53:04;;;;;;;4.40;2.37;;;;;;;;;;4956925;28;20189;-42
2022/05/19 02:55:30;;;;;;;3.97;1.90;;;;;;;;;;4957383;28;20739;-41
2022/05/19 02:57:57;;;;;;;4.33;2.30;;;;;;;;;;4958824;28;20178;-42
2022/05/19 03:00:24;;;;;;;6.17;2.60;;;;;;;;;;4960119;28;20222;-41
2022/05/19 03:02:50;;;;;;;6.50;2.60;;;;;;;;;;4960066;28;20222;-43
2022/05/19 03:05:18;;;;;;;3.30;2.00;;;;;;;;;;4960251;28;20293;-43
2022/05/19 03:07:44;;;;;;;3.70;2.43;;;;;;;;;;4957785;28;20174;-43
2022/05/19 03:10:11;;;;;;;4.30;2.57;;;;;;;;;;4959145;28;20281;-43
2022/05/19 03:12:37;;;;;;;3.60;2.23;;;;;;;;;;4959921;28;20608;-41
2022/05/19 03:15:03;;;;;;;3.47;2.40;;;;;;;;;;4955960;28;20337;-43
2022/05/19 03:17:30;;;;;;;4.97;2.23;;;;;;;;;;4959555;28;20217;-43
2022/05/19 03:19:56;;;;;;;15.13;2.50;;;;;;;;;;4959428;28;20174;-43
2022/05/19 03:22:25;;;;;;;4.57;2.17;;;;;;;;;;4956521;28;21017;-42
2022/05/19 03:24:51;;;;;;;4.20;2.50;;;;;;;;;;4954642;28;20186;-41
2022/05/19 03:27:19;;;;;;;4.27;2.20;;;;;;;;;;4957863;28;20710;-44
2022/05/19 03:29:45;;;;;;;5.93;2.67;;;;;;;;;;4959510;28;20187;-42
2022/05/19 03:32:11;;;;;;;3.50;2.20;;;;;;;;;;4960214;28;20220;-42
2022/05/19 03:34:37;;;;;;;7.03;2.30;;;;;;;;;;4957368;28;20182;-42
2022/05/19 03:37:06;;;;;;;8.97;2.37;;;;;;;;;;4961158;28;20198;-42
2022/05/19 03:39:33;;;;;;;4.07;2.10;;;;;;;;;;4960200;28;20189;-42
2022/05/19 03:41:59;;;;;;;3.63;2.33;;;;;;;;;;4960845;28;20210;-42
2022/05/19 03:44:25;;;;;;;5.33;2.60;;;;;;;;;;4961949;28;20186;-42
2022/05/19 03:46:51;;;;;;;3.47;2.57;;;;;;;;;;4960399;28;20210;-42
2022/05/19 03:49:17;;;;;;;3.03;2.20;;;;;;;;;;4959932;28;20182;-41
2022/05/19 03:51:43;;;;;;;4.97;2.17;;;;;;;;;;4959752;28;20604;-41
2022/05/19 03:54:10;;;;;;;6.67;2.30;;;;;;;;;;4961235;28;20181;-42
2022/05/19 03:56:36;;;;;;;2.87;2.20;;;;;;;;;;4959444;28;20198;-42
2022/05/19 03:59:02;;;;;;;4.60;2.60;;;;;;;;;;4958416;28;20338;-43
2022/05/19 04:01:29;;;;;;;3.63;2.50;;;;;;;;;;4959773;28;20186;-42
2022/05/19 04:03:55;;;;;;;7.80;2.53;;;;;;;;;;4960018;28;20178;-43
2022/05/19 04:06:22;;;;;;;15.57;4.03;;;;;;;;;;4957799;28;20189;-42
2022/05/19 04:08:48;;;;;;;18.70;4.67;;;;;;;;;;4958896;28;20512;-41
2022/05/19 04:11:14;;;;;;;17.70;4.40;;;;;;;;;;4961718;28;20653;-43
2022/05/19 04:13:40;;;;;;;10.07;3.37;;;;;;;;;;4960917;28;20280;-42
2022/05/19 04:16:07;;;;;;;6.80;2.80;;;;;;;;;;4961420;28;20194;-41
2022/05/19 04:18:33;;;;;;;9.70;3.20;;;;;;;;;;4959645;28;20247;-42
2022/05/19 04:20:59;;;;;;;8.77;2.90;;;;;;;;;;4958334;28;20618;-42
2022/05/19 04:23:25;;;;;;;8.73;2.83;;;;;;;;;;4958809;28;20178;-41
2022/05/19 04:25:51;;;;;;;9.20;3.10;;;;;;;;;;4962357;28;20186;-42
2022/05/19 04:28:18;;;;;;;7.03;2.90;;;;;;;;;;4960131;28;20194;-42
2022/05/19 04:30:44;;;;;;;5.57;2.93;;;;;;;;;;4957050;28;20288;-42
2022/05/19 04:33:11;;;;;;;5.90;2.50;;;;;;;;;;4954929;28;20269;-42
2022/05/19 04:35:37;;;;;;;4.37;2.20;;;;;;;;;;4960518;28;20688;-42
2022/05/19 04:38:10;;;;;;;5.43;2.60;;;;;;;;;;4958257;28;20889;-42
2022/05/19 04:40:38;;;;;;;13.53;3.33;;;;;;;;;;4953542;28;20206;-42
2022/05/19 04:43:04;;;;;;;8.70;2.90;;;;;;;;;;4961757;28;20788;-42
2022/05/19 04:45:30;;;;;;;6.13;2.80;;;;;;;;;;4953169;28;20178;-42
2022/05/19 04:47:57;;;;;;;6.17;2.73;;;;;;;;;;4954514;28;20244;-42
2022/05/19 04:50:23;;;;;;;7.10;3.10;;;;;;;;;;4958516;28;20468;-42
2022/05/19 04:52:49;;;;;;;7.30;2.77;;;;;;;;;;4963185;28;20205;-42
2022/05/19 04:55:15;;;;;;;4.20;2.60;;;;;;;;;;4957707;28;20178;-42
2022/05/19 04:57:43;;;;;;;7.33;2.70;;;;;;;;;;4952892;28;20245;-41
2022/05/19 05:00:10;;;;;;;7.53;3.20;;;;;;;;;;4963341;28;20301;-41
2022/05/19 05:02:37;;;;;;;3.80;2.73;;;;;;;;;;4937702;28;20186;-42
2022/05/19 05:05:03;;;;;;;5.50;2.30;;;;;;;;;;4960560;28;20500;-42
2022/05/19 05:07:29;;;;;;;8.80;2.70;;;;;;;;;;4960267;28;20704;-41
2022/05/19 05:09:55;;;;;;;6.83;2.43;;;;;;;;;;4960138;28;20687;-42
2022/05/19 05:12:21;;;;;;;5.77;2.70;;;;;;;;;;4958965;28;20182;-42
2022/05/19 05:14:47;;;;;;;4.63;2.60;;;;;;;;;;4957588;28;20173;-42
2022/05/19 05:17:14;;;;;;;9.90;2.93;;;;;;;;;;4953067;28;21070;-41
2022/05/19 05:19:41;;;;;;;8.13;3.17;;;;;;;;;;4956535;28;20626;-41
2022/05/19 05:22:07;;;;;;;6.73;2.67;;;;;;;;;;4958977;28;20188;-42
2022/05/19 05:24:34;;;;;;;8.47;3.07;;;;;;;;;;4959607;28;20205;-42
2022/05/19 05:27:00;;;;;;;6.63;3.00;;;;;;;;;;4953175;28;20175;-42
2022/05/19 05:29:26;;;;;;;4.77;2.70;;;;;;;;;;4954236;28;20612;-42
2022/05/19 05:31:52;;;;;;;7.33;2.80;;;;;;;;;;4958955;28;20280;-43
2022/05/19 05:34:18;;;;;;;4.97;2.80;;;;;;;;;;4956225;28;20260;-42
2022/05/19 05:36:44;;;;;;;9.43;3.17;;;;;;;;;;4957793;28;20209;-43
2022/05/19 05:39:11;;;;;;;9.63;3.07;;;;;;;;;;4956431;28;20778;-41
2022/05/19 05:41:37;;;;;;;9.60;3.40;;;;;;;;;;4953168;28;22828;-43
2022/05/19 05:44:03;;;;;;;6.60;2.90;;;;;;;;;;4957975;28;20189;-43
2022/05/19 05:46:29;;;;;;;4.07;2.80;;;;;;;;;;4958200;28;20213;-43
2022/05/19 05:48:56;;;;;;;9.30;3.20;;;;;;;;;;4952449;28;20449;-43
2022/05/19 05:51:22;;;;;;;7.37;3.00;;;;;;;;;;4959312;28;20182;-42
2022/05/19 05:53:48;;;;;;;5.73;2.93;;;;;;;;;;4959653;28;20186;-43
2022/05/19 05:56:15;;;;;;;7.23;3.17;;;;;;;;;;4958635;28;20796;-43
2022/05/19 05:58:41;;;;;;;6.47;3.00;;;;;;;;;;4961015;28;20182;-43
2022/05/19 06:01:09;;;;;;;6.20;3.53;;;;;;;;;;4963180;28;20233;-42
2022/05/19 06:03:35;;;;;;;8.90;3.37;;;;;;;;;;4963647;28;20615;-43
2022/05/19 06:06:02;;;;;;;8.00;3.23;;;;;;;;;;4961446;28;20446;-43
2022/05/19 06:08:29;;;;;;;7.87;3.37;;;;;;;;;;4963849;28;20198;-44
2022/05/19 06:10:55;;;;;;;7.53;3.37;;;;;;;;;;4964875;28;20273;-42
2022/05/19 06:13:21;;;;;;;7.87;3.40;;;;;;;;;;4962507;28;20269;-42
2022/05/19 06:15:47;;;;;;;6.47;3.10;;;;;;;;;;4959069;28;20733;-42
2022/05/19 06:18:14;;;;;;;8.10;3.00;;;;;;;;;;4964342;28;20252;-42
2022/05/19 06:20:41;;;;;;;12.63;4.10;;;;;;;;;;4962833;28;20610;-42
2022/05/19 06:23:08;;;;;;;8.33;3.50;;;;;;;;;;4960538;28;20187;-43
2022/05/19 06:25:34;;;;;;;5.00;3.57;;;;;;;;;;4962790;28;20178;-43
2022/05/19 06:28:00;;;;;;;7.13;3.27;;;;;;;;;;4960491;28;20740;-42
2022/05/19 06:30:27;;;;;;;8.17;3.50;;;;;;;;;;4959903;28;20170;-42
2022/05/19 06:32:54;;;;;;;6.97;3.50;;;;;;;;;;4959952;28;20944;-42
2022/05/19 06:35:21;;;;;;;7.40;3.30;;;;;;;;;;4961943;28;20204;-41
2022/05/19 06:37:47;;;;;;;9.53;3.03;;;;;;;;;;4957123;28;20717;-43
2022/05/19 06:40:15;;;;;;;7.70;3.27;;;;;;;;;;4959654;28;20282;-42
2022/05/19 06:42:42;;;;;;;4.60;2.47;;;;;;;;;;4957843;28;20627;-43
2022/05/19 06:45:08;;;;;;;8.67;3.10;;;;;;;;;;4962362;28;20186;-43
2022/05/19 06:47:36;;;;;;;6.53;2.80;;;;;;;;;;4956034;28;20178;-42
2022/05/19 06:50:04;;;;;;;4.87;2.73;;;;;;;;;;4958974;28;20365;-42
2022/05/19 06:52:31;;;;;;;5.10;2.83;;;;;;;;;;4963924;28;20265;-42
2022/05/19 06:54:59;;;;;;;7.50;2.90;;;;;;;;;;4960760;28;20741;-42
2022/05/19 06:57:26;;;;;;;6.47;2.97;;;;;;;;;;4961951;28;20997;-43
2022/05/19 06:59:52;;;;;;;8.23;2.97;;;;;;;;;;4963549;28;20294;-43
2022/05/19 07:02:20;;;;;;;6.90;3.43;;;;;;;;;;4960322;28;20550;-42
2022/05/19 07:04:46;;;;;;;4.33;3.00;;;;;;;;;;4957507;28;20703;-42
2022/05/19 07:07:13;;;;;;;8.00;3.13;;;;;;;;;;4961248;28;20182;-42
2022/05/19 07:09:39;;;;;;;6.93;3.27;;;;;;;;;;4962911;28;20749;-43
2022/05/19 07:12:06;;;;;;;6.67;3.10;;;;;;;;;;4960695;28;20244;-43
2022/05/19 07:14:33;;;;;;;7.77;3.40;;;;;;;;;;4959314;28;20601;-44
2022/05/19 07:16:59;;;;;;;9.10;3.40;;;;;;;;;;4963888;28;20198;-43
2022/05/19 07:22:15;;;;;;;8.67;3.47;;;;;;;;;;4959197;28;20189;-42
2022/05/19 07:24:41;;;;;;;8.17;3.30;;;;;;;;;;4960658;28;20178;-42
2022/05/19 07:27:07;;;;;;;6.73;2.83;;;;;;;;;;4961894;28;20982;-43
2022/05/19 07:29:33;;;;;;;6.27;2.87;;;;;;;;;;4959382;28;20477;-43
2022/05/19 07:32:01;;;;;;;5.10;2.40;;;;;;;;;;4961093;28;21043;-43
2022/05/19 07:34:28;;;;;;;6.20;2.50;;;;;;;;;;4962145;28;20186;-42
2022/05/19 07:36:54;;;;;;;5.23;2.60;;;;;;;;;;4956419;28;20229;-43
2022/05/19 07:39:20;;;;;;;6.70;2.53;;;;;;;;;;4962951;28;20178;-43
2022/05/19 07:41:47;;;;;;;7.40;2.50;;;;;;;;;;4960221;28;20953;-42
2022/05/19 07:44:13;;;;;;;7.47;2.93;;;;;;;;;;4959671;28;20190;-44
2022/05/19 07:46:39;;;;;;;10.97;3.00;;;;;;;;;;4959497;28;20185;-43
2022/05/19 07:49:07;;;;;;;7.30;3.20;;;;;;;;;;4965066;28;20544;-41
2022/05/19 07:51:36;;;;;;;10.10;2.73;;;;;;;;;;4958837;28;20221;-42
2022/05/19 07:54:06;;;;;;;8.33;2.83;;;;;;;;;;4956682;28;20676;-42
2022/05/19 07:56:32;;;;;;;7.37;2.77;;;;;;;;;;4958813;28;20220;-41
2022/05/19 07:58:58;;;;;;;7.90;2.60;;;;;;;;;;4958172;28;20185;-41
2022/05/19 08:01:25;;;;;;;5.53;2.97;;;;;;;;;;4959246;28;20561;-42
2022/05/19 08:03:51;;;;;;;6.80;2.63;;;;;;;;;;4959030;28;20189;-43
2022/05/19 08:06:17;;;;;;;10.27;2.57;;;;;;;;;;4958996;28;21112;-42
2022/05/19 08:08:43;;;;;;;5.77;2.70;;;;;;;;;;4962952;28;20626;-41
2022/05/19 08:11:10;;;;;;;6.87;2.50;;;;;;;;;;4961941;28;20281;-42
2022/05/19 08:16:22;;;;;;;12.17;3.07;;;;;;;;;;4963063;28;20213;-41
2022/05/19 08:18:49;;;;;;;8.33;3.07;;;;;;;;;;4960590;28;20186;-43
2022/05/19 08:21:16;;;;;;;9.37;2.93;;;;;;;;;;4957420;28;20186;-41
2022/05/19 08:23:44;;;;;;;9.93;3.30;;;;;;;;;;4963812;28;20189;-41
2022/05/19 08:26:11;;;;;;;8.13;3.07;;;;;;;;;;4963288;28;21912;-42
2022/05/19 08:28:38;;;;;;;7.00;3.07;;;;;;;;;;4960534;28;20913;-42
2022/05/19 08:31:05;;;;;;;8.00;3.03;;;;;;;;;;4960796;28;20182;-43
2022/05/19 08:33:32;;;;;;;6.47;2.63;;;;;;;;;;4964802;28;20241;-43
2022/05/19 08:35:58;;;;;;;10.93;3.20;;;;;;;;;;4963784;28;20205;-43
2022/05/19 08:38:25;;;;;;;7.00;2.70;;;;;;;;;;4960729;28;20174;-41
2022/05/19 08:41:17;;;;;;;8.37;2.70;;;;;;;;;;4959093;28;20193;-43
2022/05/19 08:43:44;;;;;;;4.63;2.20;;;;;;;;;;4959863;28;21018;-43
2022/05/19 08:46:19;;;;;;;9.57;3.10;;;;;;;;;;4962053;28;20252;-42
2022/05/19 08:48:45;;;;;;;6.27;2.30;;;;;;;;;;4960938;28;20944;-42
2022/05/19 08:51:12;;;;;;;5.23;2.60;;;;;;;;;;4965619;28;20182;-43
2022/05/19 08:53:41;;;;;;;4.70;2.27;;;;;;;;;;4964872;28;20189;-43
2022/05/19 08:56:25;;;;;;;6.43;2.63;;;;;;;;;;4961583;28;20206;-42
2022/05/19 08:59:00;;;;;;;9.93;2.57;;;;;;;;;;4961167;28;20193;-43
2022/05/19 09:01:32;;;;;;;3.77;2.00;;;;;;;;;;4944821;28;20189;-43
2022/05/19 09:04:02;;;;;;;8.13;2.80;;;;;;;;;;4961813;28;20185;-43
2022/05/19 09:06:34;;;;;;;7.73;2.60;;;;;;;;;;4959407;28;20460;-43
2022/05/19 09:09:12;;;;;;;6.90;2.53;;;;;;;;;;4959476;28;20185;-41
2022/05/19 09:12:04;;;;;;;6.50;2.77;;;;;;;;;;4958401;28;20185;-43
2022/05/19 09:14:30;;;;;;;6.97;3.13;;;;;;;;;;4956900;28;20186;-43
2022/05/19 09:16:59;;;;;;;7.73;2.43;;;;;;;;;;4961857;28;20323;-43
2022/05/19 09:19:46;;;;;;;10.17;2.77;;;;;;;;;;4961990;28;20971;-43
2022/05/19 09:22:17;;;;;;;5.10;2.70;;;;;;;;;;4959131;28;20186;-44
2022/05/19 09:24:48;;;;;;;7.03;2.63;;;;;;;;;;4964048;28;20277;-44
2022/05/19 09:27:14;;;;;;;6.70;2.60;;;;;;;;;;4962131;28;21025;-43
2022/05/19 09:29:42;;;;;;;5.80;2.33;;;;;;;;;;4959027;28;20186;-43
2022/05/19 09:32:13;;;;;;;4.23;2.27;;;;;;;;;;4959243;28;20197;-44
2022/05/19 09:34:41;;;;;;;6.40;2.40;;;;;;;;;;4965714;28;20197;-44
2022/05/19 09:37:10;;;;;;;9.40;2.80;;;;;;;;;;4965152;28;20358;-44
2022/05/19 09:39:43;;;;;;;3.53;2.00;;;;;;;;;;4962222;28;21056;-43
2022/05/19 09:42:11;;;;;;;3.60;2.70;;;;;;;;;;4962808;28;20178;-43
2022/05/19 09:44:40;;;;;;;7.97;2.60;;;;;;;;;;4965019;28;20182;-44
2022/05/19 09:47:25;;;;;;;5.73;2.10;;;;;;;;;;4962422;28;20178;-43
2022/05/19 09:50:02;;;;;;;4.77;2.40;;;;;;;;;;4959382;28;20190;-43
2022/05/19 09:52:32;;;;;;;4.93;2.53;;;;;;;;;;4964781;28;20193;-43
2022/05/19 09:55:00;;;;;;;6.53;2.50;;;;;;;;;;4966527;28;20185;-43
2022/05/19 09:57:28;;;;;;;7.27;2.63;;;;;;;;;;4962426;28;20198;-43
2022/05/19 09:59:59;;;;;;;13.53;2.63;;;;;;;;;;4964721;28;20271;-41
2022/05/19 10:02:25;;;;;;;7.97;2.73;;;;;;;;;;4960620;28;20310;-42
2022/05/19 10:04:56;;;;;;;6.97;2.70;;;;;;;;;;4963949;28;20213;-43
2022/05/19 10:07:24;;;;;;;7.80;2.57;;;;;;;;;;4963752;28;20182;-43
2022/05/19 10:09:50;;;;;;;5.47;2.20;;;;;;;;;;4959560;28;20177;-42
2022/05/19 10:12:22;;;;;;;3.87;2.17;;;;;;;;;;4961505;28;20174;-43
2022/05/19 10:14:51;;;;;;;6.43;2.60;;;;;;;;;;4965890;28;20256;-43
2022/05/19 10:17:29;;;;;;;7.37;2.70;;;;;;;;;;4960711;28;20322;-42
2022/05/19 10:19:55;;;;;;;2.90;2.00;;;;;;;;;;4957703;28;20750;-43
2022/05/19 10:22:40;;;;;;;3.60;2.17;;;;;;;;;;4960563;28;20193;-42
2022/05/19 10:25:06;;;;;;;6.17;2.13;;;;;;;;;;4963044;28;20226;-43
2022/05/19 10:33:45;;;;;;;5.77;2.30;;;;;;;;;;4962727;28;20730;-42
2022/05/19 10:36:26;;;;;;;5.73;2.33;;;;;;;;;;4959307;28;20280;-43
2022/05/19 10:38:52;;;;;;;3.47;2.53;;;;;;;;;;4959703;28;20179;-43
2022/05/19 10:41:24;;;;;;;4.27;2.30;;;;;;;;;;4963090;28;20257;-43
2022/05/19 10:43:59;;;;;;;4.97;2.10;;;;;;;;;;4959405;28;20194;-43
2022/05/19 10:46:45;;;;;;;6.90;2.33;;;;;;;;;;4959740;28;20185;-42
2022/05/19 10:49:17;;;;;;;5.13;2.13;;;;;;;;;;4941801;28;20550;-42
2022/05/19 10:51:43;;;;;;;9.00;2.47;;;;;;;;;;4961568;28;20934;-42
2022/05/19 10:54:26;;;;;;;4.47;2.40;;;;;;;;;;4962432;28;20680;-43
2022/05/19 10:57:04;;;;;;;7.03;2.60;;;;;;;;;;4964167;28;20942;-43
2022/05/19 10:59:39;;;;;;;7.43;2.20;;;;;;;;;;4961111;28;20294;-43
2022/05/19 11:02:28;;;;;;;10.40;2.40;;;;;;;;;;4961643;28;20182;-43
2022/05/19 11:05:00;;;;;;;9.20;2.40;;;;;;;;;;4962580;28;20854;-43
2022/05/19 11:07:36;;;;;;;4.07;2.20;;;;;;;;;;4958891;28;20527;-43
2022/05/19 11:10:05;;;;;;;6.67;2.47;;;;;;;;;;4961978;28;20182;-42
2022/05/19 11:12:31;;;;;;;4.03;2.37;;;;;;;;;;4959614;28;20884;-43
2022/05/19 11:15:02;;;;;;;9.10;2.53;;;;;;;;;;4960391;28;20655;-43
2022/05/19 11:17:29;;;;;;;6.67;2.20;;;;;;;;;;4963015;28;20385;-43
2022/05/19 11:19:59;;;;;;;6.30;2.40;;;;;;;;;;4962231;28;20345;-44
2022/05/19 11:22:27;;;;;;;6.67;2.53;;;;;;;;;;4960696;28;20617;-43
2022/05/19 11:27:48;;;;;;;9.90;2.97;;;;;;;;;;4961401;28;20288;-42
2022/05/19 11:30:18;;;;;;;4.67;2.50;;;;;;;;;;4957911;28;20185;-43
2022/05/19 11:32:45;;;;;;;6.77;2.70;;;;;;;;;;4957760;28;20799;-43
2022/05/19 11:35:19;;;;;;;5.27;2.30;;;;;;;;;;4961770;28;20559;-42
2022/05/19 11:38:04;;;;;;;6.93;2.50;;;;;;;;;;4959377;28;21030;-43
2022/05/19 11:40:40;;;;;;;5.13;2.30;;;;;;;;;;4956802;28;20218;-43
2022/05/19 11:43:09;;;;;;;5.03;2.93;;;;;;;;;;4960044;28;20217;-43
2022/05/19 11:45:38;;;;;;;7.87;2.30;;;;;;;;;;4955470;28;20579;-43
2022/05/19 11:57:04;;;;;;;5.57;2.50;;;;;;;;;;4959295;28;20246;-42
2022/05/19 11:59:30;;;;;;;7.03;2.50;;;;;;;;;;4963968;28;20182;-43
2022/05/19 12:01:56;;;;;;;6.90;2.60;;;;;;;;;;4958016;28;20930;-42
2022/05/19 12:04:28;;;;;;;5.03;2.63;;;;;;;;;;4957767;28;20545;-43
2022/05/19 12:07:09;;;;;;;5.47;2.53;;;;;;;;;;4959481;28;20361;-43
2022/05/19 12:09:38;;;;;;;5.37;2.40;;;;;;;;;;4954470;28;20182;-43
2022/05/19 12:12:05;;;;;;;7.90;2.93;;;;;;;;;;4952582;28;20685;-43
2022/05/19 12:14:36;;;;;;;8.73;2.50;;;;;;;;;;4955537;28;20493;-42
2022/05/19 12:17:03;;;;;;;3.93;2.33;;;;;;;;;;4942567;28;20433;-42
2022/05/19 12:19:52;;;;;;;6.97;2.63;;;;;;;;;;4954604;28;20183;-43
2022/05/19 12:22:18;;;;;;;4.53;2.60;;;;;;;;;;4959943;28;20185;-43
2022/05/19 12:24:53;;;;;;;7.23;2.83;;;;;;;;;;4959541;28;20175;-43
2022/05/19 12:27:22;;;;;;;5.97;2.33;;;;;;;;;;4956432;28;20190;-43
2022/05/19 12:29:54;;;;;;;5.27;2.57;;;;;;;;;;4932860;28;20884;-42
2022/05/19 12:32:23;;;;;;;7.00;2.60;;;;;;;;;;4956157;28;20226;-43
2022/05/19 12:34:49;;;;;;;4.07;2.30;;;;;;;;;;4960203;28;20188;-43
2022/05/19 12:37:15;;;;;;;7.00;2.33;;;;;;;;;;4956729;28;20234;-43
2022/05/19 12:39:46;;;;;;;9.40;2.70;;;;;;;;;;4950120;28;20717;-43
2022/05/19 12:42:12;;;;;;;3.50;2.00;;;;;;;;;;4959735;28;20503;-43
2022/05/19 12:44:51;;;;;;;7.83;2.83;;;;;;;;;;4957175;28;20186;-43
2022/05/19 12:47:20;;;;;;;5.50;2.20;;;;;;;;;;4954209;28;20663;-43
2022/05/19 12:50:06;;;;;;;7.33;2.50;;;;;;;;;;4957841;28;20721;-43
2022/05/19 12:52:52;;;;;;;7.00;2.50;;;;;;;;;;4952494;28;20259;-43
2022/05/19 12:55:25;;;;;;;7.03;2.40;;;;;;;;;;4954997;28;20599;-43
2022/05/19 12:57:51;;;;;;;6.33;2.37;;;;;;;;;;4953567;28;20430;-42
2022/05/19 13:00:47;;;;;;;3.83;2.10;;;;;;;;;;4954925;28;20788;-43
2022/05/19 13:03:16;;;;;;;9.37;2.50;;;;;;;;;;4940150;28;20245;-43
2022/05/19 13:06:05;;;;;;;7.37;2.60;;;;;;;;;;4955021;28;20734;-43
2022/05/19 13:08:32;;;;;;;5.67;2.47;;;;;;;;;;4955015;28;20781;-42
2022/05/19 13:10:59;;;;;;;5.10;2.47;;;;;;;;;;4956747;28;20718;-44
2022/05/19 13:13:27;;;;;;;4.83;2.63;;;;;;;;;;4956451;28;20967;-43
2022/05/19 13:15:57;;;;;;;7.83;2.70;;;;;;;;;;4953422;28;20614;-43
2022/05/19 13:18:27;;;;;;;4.60;2.37;;;;;;;;;;4956318;28;20186;-43
2022/05/19 13:21:02;;;;;;;3.93;2.23;;;;;;;;;;4957509;28;20174;-42
2022/05/19 13:23:29;;;;;;;4.17;2.17;;;;;;;;;;4954376;28;20182;-43
2022/05/19 13:25:59;;;;;;;6.73;2.40;;;;;;;;;;4957762;28;20698;-43
2022/05/19 13:31:22;;;;;;;6.97;2.30;;;;;;;;;;4955128;28;20623;-43
2022/05/19 13:33:50;;;;;;;5.23;2.37;;;;;;;;;;4959449;28;20289;-43
2022/05/19 13:36:26;;;;;;;4.17;2.50;;;;;;;;;;4956510;28;20654;-43
2022/05/19 13:39:11;;;;;;;6.07;2.17;;;;;;;;;;4937043;28;20184;-42
2022/05/19 13:41:45;;;;;;;3.73;2.20;;;;;;;;;;4956098;28;20192;-43
2022/05/19 13:44:12;;;;;;;8.27;2.30;;;;;;;;;;4953415;28;20627;-43
2022/05/19 13:46:39;;;;;;;5.13;2.70;;;;;;;;;;4952295;28;20178;-43
2022/05/19 13:49:07;;;;;;;3.43;2.50;;;;;;;;;;4956505;28;20196;-43
2022/05/19 13:51:33;;;;;;;5.83;2.30;;;;;;;;;;4952754;28;20753;-43
2022/05/19 13:54:01;;;;;;;5.13;2.50;;;;;;;;;;4953153;28;20178;-43
2022/05/19 13:56:36;;;;;;;5.67;2.40;;;;;;;;;;4956504;28;20630;-43
2022/05/19 13:59:03;;;;;;;4.70;2.60;;;;;;;;;;4955231;28;20186;-42
2022/05/19 14:01:42;;;;;;;4.87;2.23;;;;;;;;;;4953550;28;20996;-43
2022/05/19 14:04:09;;;;;;;6.10;2.40;;;;;;;;;;4958127;28;20456;-43
2022/05/19 14:06:36;;;;;;;6.47;2.30;;;;;;;;;;4957476;28;20201;-43
2022/05/19 14:09:03;;;;;;;9.00;2.40;;;;;;;;;;4952332;28;20789;-43
2022/05/19 14:11:29;;;;;;;6.80;2.00;;;;;;;;;;4954578;28;20188;-43
2022/05/19 14:13:57;;;;;;;6.00;2.27;;;;;;;;;;4956835;28;20182;-43
2022/05/19 14:16:24;;;;;;;4.67;2.37;;;;;;;;;;4954640;28;20730;-44
2022/05/19 14:18:50;;;;;;;7.87;2.43;;;;;;;;;;4951726;28;20181;-43
2022/05/19 14:21:18;;;;;;;4.13;2.37;;;;;;;;;;4959039;28;20170;-43
2022/05/19 14:23:50;;;;;;;3.60;2.20;;;;;;;;;;4950702;28;20490;-43
2022/05/19 14:26:18;;;;;;;5.10;2.30;;;;;;;;;;4951466;28;20293;-43
2022/05/19 14:28:45;;;;;;;4.53;2.03;;;;;;;;;;4954603;28;20261;-43
2022/05/19 14:31:35;;;;;;;7.77;2.37;;;;;;;;;;4957693;28;20378;-43
2022/05/19 14:34:20;;;;;;;7.60;2.50;;;;;;;;;;4949121;28;20860;-43
2022/05/19 14:36:59;;;;;;;4.57;2.43;;;;;;;;;;4958213;28;20619;-43
2022/05/19 14:39:36;;;;;;;6.60;2.30;;;;;;;;;;4954469;28;20181;-43
2022/05/19 14:44:53;;;;;;;6.53;2.30;;;;;;;;;;4958032;28;20240;-43
2022/05/19 14:47:36;;;;;;;7.03;2.70;;;;;;;;;;4958388;28;20178;-43
2022/05/19 14:50:06;;;;;;;7.43;2.40;;;;;;;;;;4957812;28;20804;-43
2022/05/19 14:52:34;;;;;;;4.77;2.00;;;;;;;;;;4961200;28;20569;-43
2022/05/19 14:55:01;;;;;;;6.20;2.00;;;;;;;;;;4955384;28;20608;-43
2022/05/19 14:57:29;;;;;;;4.87;2.27;;;;;;;;;;4957061;28;20205;-41
2022/05/19 14:59:56;;;;;;;6.10;2.07;;;;;;;;;;4960428;28;20282;-43
2022/05/19 15:02:24;;;;;;;4.07;2.53;;;;;;;;;;4953447;28;20193;-42
2022/05/19 15:04:50;;;;;;;4.93;2.40;;;;;;;;;;4959610;28;20731;-43
2022/05/19 15:07:24;;;;;;;4.93;2.20;;;;;;;;;;4962725;28;20182;-43
2022/05/19 15:09:50;;;;;;;3.40;2.10;;;;;;;;;;4959298;28;20567;-43
2022/05/19 15:12:16;;;;;;;6.93;2.30;;;;;;;;;;4960553;28;20401;-43
2022/05/19 15:14:42;;;;;;;6.47;2.30;;;;;;;;;;4963177;28;20193;-43
2022/05/19 15:17:08;;;;;;;4.30;2.10;;;;;;;;;;4956305;28;20221;-43
2022/05/19 15:19:34;;;;;;;7.97;2.23;;;;;;;;;;4958396;28;20608;-42
2022/05/19 15:22:01;;;;;;;5.47;2.20;;;;;;;;;;4958150;28;20179;-43
2022/05/19 15:24:27;;;;;;;5.47;2.53;;;;;;;;;;4960988;28;20178;-42